sensor_id;sensor_type;location;lat;lon;timestamp;temperature;humidity
2447;DHT22;26430;48.818;9.244;2022-09-09T00:00:38;15.80;99.90
2447;DHT22;26430;48.818;9.244;2022-09-09T00:03:16;15.60;99.90
2447;DHT22;26430;48.818;9.244;2022-09-09T00:08:58;15.30;99.90
2447;DHT22;26430;48.818;9.244;2022-09-09T00:11:40;15.30;99.90
2447;DHT22;26430;48.818;9.244;2022-09-09T00:14:34;15.40;99.90
2447;DHT22;26430;48.818;9.244;2022-09-09T00:17:06;15.30;99.90
2447;DHT22;26430;48.818;9.244;2022-09-09T00:19:45;15.30;99.90
2447;DHT22;26430;48.818;9.244;2022-09-09T00:22:20;15.30;99.90
2447;DHT22;26430;48.818;9.244;2022-09-09T00:24:53;15.40;99.90
2447;DHT22;26430;48.818;9.244;2022-09-09T00:27:54;15.40;99.90
2447;DHT22;26430;48.818;9.244;2022-09-09T00:30:38;15.50;99.90
2447;DHT22;26430;48.818;9.244;2022-09-09T00:33:11;15.60;99.90
2447;DHT22;26430;48.818;9.244;2022-09-09T00:35:45;15.70;99.90
2447;DHT22;26430;48.818;9.244;2022-09-09T00:38:34;15.70;99.90
2447;DHT22;26430;48.818;9.244;2022-09-09T00:41:21;15.60;99.90
2447;DHT22;26430;48.818;9.244;2022-09-09T00:47:18;15.70;99.90
2447;DHT22;26430;48.818;9.244;2022-09-09T00:50:03;15.70;99.90
2447;DHT22;26430;48.818;9.244;2022-09-09T00:55:20;15.90;99.90
2447;DHT22;26430;48.818;9.244;2022-09-09T00:57:50;15.90;99.90
2447;DHT22;26430;48.818;9.244;2022-09-09T01:08:43;16.00;99.90
2447;DHT22;26430;48.818;9.244;2022-09-09T01:11:24;16.00;99.90
2447;DHT22;26430;48.818;9.244;2022-09-09T01:14:00;16.00;99.90
2447;DHT22;26430;48.818;9.244;2022-09-09T01:16:29;16.00;99.90
2447;DHT22;26430;48.818;9.244;2022-09-09T01:18:56;16.00;99.90
2447;DHT22;26430;48.818;9.244;2022-09-09T01:24:40;16.10;99.90
2447;DHT22;26430;48.818;9.244;2022-09-09T01:27:08;16.20;99.90
2447;DHT22;26430;48.818;9.244;2022-09-09T01:29:34;16.30;99.90
2447;DHT22;26430;48.818;9.244;2022-09-09T01:35:08;16.30;99.90
2447;DHT22;26430;48.818;9.244;2022-09-09T01:37:35;16.30;99.90
2447;DHT22;26430;48.818;9.244;2022-09-09T01:40:01;16.40;99.90
2447;DHT22;26430;48.818;9.244;2022-09-09T01:42:26;16.30;99.90
2447;DHT22;26430;48.818;9.244;2022-09-09T01:44:52;16.30;99.90
2447;DHT22;26430;48.818;9.244;2022-09-09T01:47:19;16.30;99.90
2447;DHT22;26430;48.818;9.244;2022-09-09T01:49:45;16.30;99.90
2447;DHT22;26430;48.818;9.244;2022-09-09T01:52:11;16.30;99.90
2447;DHT22;26430;48.818;9.244;2022-09-09T01:54:36;16.40;99.90
2447;DHT22;26430;48.818;9.244;2022-09-09T01:57:23;16.40;99.90
2447;DHT22;26430;48.818;9.244;2022-09-09T02:00:06;16.40;99.90
2447;DHT22;26430;48.818;9.244;2022-09-09T02:02:55;16.60;99.90
2447;DHT22;26430;48.818;9.244;2022-09-09T02:05:45;16.60;99.90
2447;DHT22;26430;48.818;9.244;2022-09-09T02:08:24;16.50;99.90
2447;DHT22;26430;48.818;9.244;2022-09-09T02:13:35;16.50;99.90
2447;DHT22;26430;48.818;9.244;2022-09-09T02:21:34;16.30;99.90
2447;DHT22;26430;48.818;9.244;2022-09-09T02:24:03;16.10;99.90
2447;DHT22;26430;48.818;9.244;2022-09-09T02:26:31;16.00;99.90
2447;DHT22;26430;48.818;9.244;2022-09-09T02:29:00;16.00;99.90
2447;DHT22;26430;48.818;9.244;2022-09-09T02:31:27;16.00;99.90
2447;DHT22;26430;48.818;9.244;2022-09-09T02:33:56;16.00;99.90
2447;DHT22;26430;48.818;9.244;2022-09-09T02:36:26;16.00;99.90
2447;DHT22;26430;48.818;9.244;2022-09-09T02:38:54;15.90;99.90
2447;DHT22;26430;48.818;9.244;2022-09-09T02:41:26;16.20;99.90
2447;DHT22;26430;48.818;9.244;2022-09-09T02:43:53;16.10;99.90
2447;DHT22;26430;48.818;9.244;2022-09-09T02:52:18;16.20;99.90
2447;DHT22;26430;48.818;9.244;2022-09-09T02:54:44;16.20;99.90
2447;DHT22;26430;48.818;9.244;2022-09-09T02:57:12;16.20;99.90
2447;DHT22;26430;48.818;9.244;2022-09-09T02:59:40;16.20;99.90
2447;DHT22;26430;48.818;9.244;2022-09-09T03:02:05;16.20;99.90
2447;DHT22;26430;48.818;9.244;2022-09-09T03:04:31;16.20;99.90
2447;DHT22;26430;48.818;9.244;2022-09-09T03:06:58;16.20;99.90
2447;DHT22;26430;48.818;9.244;2022-09-09T03:09:24;16.20;99.90
2447;DHT22;26430;48.818;9.244;2022-09-09T03:11:51;16.10;99.90
2447;DHT22;26430;48.818;9.244;2022-09-09T03:14:17;16.20;99.90
2447;DHT22;26430;48.818;9.244;2022-09-09T03:16:46;16.20;99.90
2447;DHT22;26430;48.818;9.244;2022-09-09T03:19:12;16.10;99.90
2447;DHT22;26430;48.818;9.244;2022-09-09T03:21:38;15.90;99.90
2447;DHT22;26430;48.818;9.244;2022-09-09T03:24:04;15.80;99.90
2447;DHT22;26430;48.818;9.244;2022-09-09T03:26:33;15.80;99.90
2447;DHT22;26430;48.818;9.244;2022-09-09T03:28:59;15.70;99.90
2447;DHT22;26430;48.818;9.244;2022-09-09T03:31:26;15.80;99.90
2447;DHT22;26430;48.818;9.244;2022-09-09T03:33:56;15.70;99.90
2447;DHT22;26430;48.818;9.244;2022-09-09T03:36:24;15.60;99.90
2447;DHT22;26430;48.818;9.244;2022-09-09T03:38:49;15.50;99.90
2447;DHT22;26430;48.818;9.244;2022-09-09T03:41:16;15.50;99.90
2447;DHT22;26430;48.818;9.244;2022-09-09T03:43:41;15.50;99.90
2447;DHT22;26430;48.818;9.244;2022-09-09T03:46:07;15.50;99.90
2447;DHT22;26430;48.818;9.244;2022-09-09T03:48:33;15.50;99.90
2447;DHT22;26430;48.818;9.244;2022-09-09T03:50:58;15.50;99.90
2447;DHT22;26430;48.818;9.244;2022-09-09T03:53:26;15.50;99.90
2447;DHT22;26430;48.818;9.244;2022-09-09T03:55:54;15.50;99.90
2447;DHT22;26430;48.818;9.244;2022-09-09T03:58:22;15.50;99.90
2447;DHT22;26430;48.818;9.244;2022-09-09T04:00:57;15.40;99.90
2447;DHT22;26430;48.818;9.244;2022-09-09T04:03:24;15.40;99.90
2447;DHT22;26430;48.818;9.244;2022-09-09T04:05:51;15.30;99.90
2447;DHT22;26430;48.818;9.244;2022-09-09T04:08:18;15.30;99.90
2447;DHT22;26430;48.818;9.244;2022-09-09T04:10:48;15.30;99.90
2447;DHT22;26430;48.818;9.244;2022-09-09T04:13:14;15.40;99.90
2447;DHT22;26430;48.818;9.244;2022-09-09T04:15:41;15.30;99.90
2447;DHT22;26430;48.818;9.244;2022-09-09T04:18:07;15.30;99.90
2447;DHT22;26430;48.818;9.244;2022-09-09T04:20:33;15.20;99.90
2447;DHT22;26430;48.818;9.244;2022-09-09T04:22:59;15.20;99.90
2447;DHT22;26430;48.818;9.244;2022-09-09T04:25:25;15.10;99.90
2447;DHT22;26430;48.818;9.244;2022-09-09T04:27:57;15.00;99.90
2447;DHT22;26430;48.818;9.244;2022-09-09T04:30:24;15.10;99.90
2447;DHT22;26430;48.818;9.244;2022-09-09T04:32:50;15.20;99.90
2447;DHT22;26430;48.818;9.244;2022-09-09T04:35:16;15.10;99.90
2447;DHT22;26430;48.818;9.244;2022-09-09T04:37:42;15.10;99.90
2447;DHT22;26430;48.818;9.244;2022-09-09T04:40:08;15.10;99.90
2447;DHT22;26430;48.818;9.244;2022-09-09T04:42:37;15.10;99.90
2447;DHT22;26430;48.818;9.244;2022-09-09T04:45:04;15.10;99.90
2447;DHT22;26430;48.818;9.244;2022-09-09T04:47:30;15.00;99.90
2447;DHT22;26430;48.818;9.244;2022-09-09T04:49:56;15.00;99.90
2447;DHT22;26430;48.818;9.244;2022-09-09T04:52:21;15.00;99.90
2447;DHT22;26430;48.818;9.244;2022-09-09T04:54:47;15.10;99.90
2447;DHT22;26430;48.818;9.244;2022-09-09T04:57:13;15.10;99.90
2447;DHT22;26430;48.818;9.244;2022-09-09T04:59:39;15.00;99.90
2447;DHT22;26430;48.818;9.244;2022-09-09T05:02:05;15.00;99.90
2447;DHT22;26430;48.818;9.244;2022-09-09T05:04:31;14.90;99.90
2447;DHT22;26430;48.818;9.244;2022-09-09T05:06:57;14.90;99.90
2447;DHT22;26430;48.818;9.244;2022-09-09T05:09:22;14.90;99.90
2447;DHT22;26430;48.818;9.244;2022-09-09T05:11:48;15.00;99.90
2447;DHT22;26430;48.818;9.244;2022-09-09T05:14:14;15.10;99.90
2447;DHT22;26430;48.818;9.244;2022-09-09T05:16:40;15.10;99.90
2447;DHT22;26430;48.818;9.244;2022-09-09T05:19:06;15.00;99.90
2447;DHT22;26430;48.818;9.244;2022-09-09T05:21:34;15.20;99.90
2447;DHT22;26430;48.818;9.244;2022-09-09T05:23:59;15.30;99.90
2447;DHT22;26430;48.818;9.244;2022-09-09T05:26:28;15.40;99.90
2447;DHT22;26430;48.818;9.244;2022-09-09T05:28:57;15.30;99.90
2447;DHT22;26430;48.818;9.244;2022-09-09T05:31:24;15.30;99.90
2447;DHT22;26430;48.818;9.244;2022-09-09T05:33:53;15.20;99.90
2447;DHT22;26430;48.818;9.244;2022-09-09T05:36:20;15.40;99.90
2447;DHT22;26430;48.818;9.244;2022-09-09T05:38:46;15.60;99.90
2447;DHT22;26430;48.818;9.244;2022-09-09T05:41:13;15.80;99.90
2447;DHT22;26430;48.818;9.244;2022-09-09T05:43:41;15.70;99.90
2447;DHT22;26430;48.818;9.244;2022-09-09T05:46:14;15.60;99.90
2447;DHT22;26430;48.818;9.244;2022-09-09T05:48:42;15.50;99.90
2447;DHT22;26430;48.818;9.244;2022-09-09T05:51:12;15.50;99.90
2447;DHT22;26430;48.818;9.244;2022-09-09T05:53:41;15.70;99.90
2447;DHT22;26430;48.818;9.244;2022-09-09T05:56:11;15.60;99.90
2447;DHT22;26430;48.818;9.244;2022-09-09T05:58:38;15.60;99.90
2447;DHT22;26430;48.818;9.244;2022-09-09T06:01:09;15.60;99.90
2447;DHT22;26430;48.818;9.244;2022-09-09T06:03:37;15.70;99.90
2447;DHT22;26430;48.818;9.244;2022-09-09T06:06:05;15.70;99.90
2447;DHT22;26430;48.818;9.244;2022-09-09T06:08:33;15.70;99.90
2447;DHT22;26430;48.818;9.244;2022-09-09T06:11:13;15.70;99.90
2447;DHT22;26430;48.818;9.244;2022-09-09T06:13:40;15.70;99.90
2447;DHT22;26430;48.818;9.244;2022-09-09T06:16:10;15.70;99.90
2447;DHT22;26430;48.818;9.244;2022-09-09T06:18:37;15.70;99.90
2447;DHT22;26430;48.818;9.244;2022-09-09T06:21:06;15.70;99.90
2447;DHT22;26430;48.818;9.244;2022-09-09T06:23:33;15.80;99.90
2447;DHT22;26430;48.818;9.244;2022-09-09T06:26:21;15.80;99.90
2447;DHT22;26430;48.818;9.244;2022-09-09T06:28:49;15.90;99.90
2447;DHT22;26430;48.818;9.244;2022-09-09T06:31:17;15.90;99.90
2447;DHT22;26430;48.818;9.244;2022-09-09T06:33:45;16.10;99.90
2447;DHT22;26430;48.818;9.244;2022-09-09T06:36:31;16.00;99.90
2447;DHT22;26430;48.818;9.244;2022-09-09T06:38:58;16.10;99.90
2447;DHT22;26430;48.818;9.244;2022-09-09T06:41:26;16.30;99.90
2447;DHT22;26430;48.818;9.244;2022-09-09T06:43:52;16.40;99.90
2447;DHT22;26430;48.818;9.244;2022-09-09T06:46:20;16.40;99.90
2447;DHT22;26430;48.818;9.244;2022-09-09T06:48:47;16.50;99.90
2447;DHT22;26430;48.818;9.244;2022-09-09T06:51:19;16.40;99.90
2447;DHT22;26430;48.818;9.244;2022-09-09T06:53:46;16.50;99.90
2447;DHT22;26430;48.818;9.244;2022-09-09T06:56:28;16.60;99.90
2447;DHT22;26430;48.818;9.244;2022-09-09T06:58:56;16.70;99.90
2447;DHT22;26430;48.818;9.244;2022-09-09T07:01:28;16.80;99.90
2447;DHT22;26430;48.818;9.244;2022-09-09T07:03:57;16.50;99.90
2447;DHT22;26430;48.818;9.244;2022-09-09T07:06:35;16.60;99.90
2447;DHT22;26430;48.818;9.244;2022-09-09T07:09:04;16.70;99.90
2447;DHT22;26430;48.818;9.244;2022-09-09T07:11:32;16.70;99.90
2447;DHT22;26430;48.818;9.244;2022-09-09T07:13:59;16.90;99.90
2447;DHT22;26430;48.818;9.244;2022-09-09T07:16:26;16.90;99.90
2447;DHT22;26430;48.818;9.244;2022-09-09T07:18:53;16.90;99.90
2447;DHT22;26430;48.818;9.244;2022-09-09T07:21:23;17.00;99.90
2447;DHT22;26430;48.818;9.244;2022-09-09T07:23:50;17.20;99.90
2447;DHT22;26430;48.818;9.244;2022-09-09T07:26:18;17.10;99.90
2447;DHT22;26430;48.818;9.244;2022-09-09T07:28:48;17.00;99.90
2447;DHT22;26430;48.818;9.244;2022-09-09T07:31:16;17.00;99.90
2447;DHT22;26430;48.818;9.244;2022-09-09T07:33:43;17.10;99.90
2447;DHT22;26430;48.818;9.244;2022-09-09T07:36:26;17.10;99.90
2447;DHT22;26430;48.818;9.244;2022-09-09T07:38:58;17.20;99.90
2447;DHT22;26430;48.818;9.244;2022-09-09T07:41:28;17.20;99.90
2447;DHT22;26430;48.818;9.244;2022-09-09T07:43:54;17.20;99.90
2447;DHT22;26430;48.818;9.244;2022-09-09T07:46:21;17.40;99.90
2447;DHT22;26430;48.818;9.244;2022-09-09T07:48:49;17.50;99.90
2447;DHT22;26430;48.818;9.244;2022-09-09T07:51:20;17.50;99.90
2447;DHT22;26430;48.818;9.244;2022-09-09T07:53:48;17.50;99.90
2447;DHT22;26430;48.818;9.244;2022-09-09T07:56:17;17.70;99.90
2447;DHT22;26430;48.818;9.244;2022-09-09T07:58:47;17.70;99.90
2447;DHT22;26430;48.818;9.244;2022-09-09T08:01:19;17.60;99.90
2447;DHT22;26430;48.818;9.244;2022-09-09T08:03:46;17.40;99.90
2447;DHT22;26430;48.818;9.244;2022-09-09T08:06:13;17.50;99.90
2447;DHT22;26430;48.818;9.244;2022-09-09T08:08:39;17.70;99.90
2447;DHT22;26430;48.818;9.244;2022-09-09T08:11:13;17.70;99.90
2447;DHT22;26430;48.818;9.244;2022-09-09T08:13:41;17.80;99.90
2447;DHT22;26430;48.818;9.244;2022-09-09T08:16:12;18.00;99.90
2447;DHT22;26430;48.818;9.244;2022-09-09T08:18:38;18.20;99.90
2447;DHT22;26430;48.818;9.244;2022-09-09T08:21:16;18.40;99.90
2447;DHT22;26430;48.818;9.244;2022-09-09T08:23:45;18.60;99.90
2447;DHT22;26430;48.818;9.244;2022-09-09T08:26:19;18.70;99.90
2447;DHT22;26430;48.818;9.244;2022-09-09T08:28:53;18.90;99.90
2447;DHT22;26430;48.818;9.244;2022-09-09T08:31:24;18.80;99.90
2447;DHT22;26430;48.818;9.244;2022-09-09T08:33:50;18.90;99.90
2447;DHT22;26430;48.818;9.244;2022-09-09T08:36:18;18.90;99.90
2447;DHT22;26430;48.818;9.244;2022-09-09T08:38:49;19.10;99.90
2447;DHT22;26430;48.818;9.244;2022-09-09T08:44:07;19.40;99.90
2447;DHT22;26430;48.818;9.244;2022-09-09T08:51:58;20.00;99.90
2447;DHT22;26430;48.818;9.244;2022-09-09T08:54:34;19.70;99.90
2447;DHT22;26430;48.818;9.244;2022-09-09T08:57:02;19.70;99.90
2447;DHT22;26430;48.818;9.244;2022-09-09T08:59:29;19.90;99.90
2447;DHT22;26430;48.818;9.244;2022-09-09T09:02:19;20.10;99.90
2447;DHT22;26430;48.818;9.244;2022-09-09T09:05:08;20.10;99.90
2447;DHT22;26430;48.818;9.244;2022-09-09T09:10:46;20.00;99.90
2447;DHT22;26430;48.818;9.244;2022-09-09T09:13:20;20.00;99.90
2447;DHT22;26430;48.818;9.244;2022-09-09T09:15:52;20.10;99.90
2447;DHT22;26430;48.818;9.244;2022-09-09T09:18:19;20.20;99.90
2447;DHT22;26430;48.818;9.244;2022-09-09T09:23:37;20.20;99.90
2447;DHT22;26430;48.818;9.244;2022-09-09T09:26:07;20.30;99.90
2447;DHT22;26430;48.818;9.244;2022-09-09T09:28:35;20.30;99.90
2447;DHT22;26430;48.818;9.244;2022-09-09T09:31:06;20.50;99.90
2447;DHT22;26430;48.818;9.244;2022-09-09T09:33:42;20.40;99.90
2447;DHT22;26430;48.818;9.244;2022-09-09T09:36:09;20.00;99.90
2447;DHT22;26430;48.818;9.244;2022-09-09T09:38:36;19.70;99.90
2447;DHT22;26430;48.818;9.244;2022-09-09T09:41:03;19.50;99.90
2447;DHT22;26430;48.818;9.244;2022-09-09T09:43:40;19.50;99.90
2447;DHT22;26430;48.818;9.244;2022-09-09T09:46:20;19.20;99.90
2447;DHT22;26430;48.818;9.244;2022-09-09T09:49:03;18.30;99.90
2447;DHT22;26430;48.818;9.244;2022-09-09T09:51:31;18.20;99.90
2447;DHT22;26430;48.818;9.244;2022-09-09T09:56:40;19.50;99.90
2447;DHT22;26430;48.818;9.244;2022-09-09T10:01:54;20.80;99.90
2447;DHT22;26430;48.818;9.244;2022-09-09T10:04:22;21.30;99.90
2447;DHT22;26430;48.818;9.244;2022-09-09T10:06:50;21.70;99.90
2447;DHT22;26430;48.818;9.244;2022-09-09T10:11:53;21.70;99.90
2447;DHT22;26430;48.818;9.244;2022-09-09T10:14:42;21.90;99.90
2447;DHT22;26430;48.818;9.244;2022-09-09T10:26:19;22.10;99.90
2447;DHT22;26430;48.818;9.244;2022-09-09T10:34:53;23.20;99.90
2447;DHT22;26430;48.818;9.244;2022-09-09T10:37:35;23.20;99.90
2447;DHT22;26430;48.818;9.244;2022-09-09T10:40:33;23.10;99.90
2447;DHT22;26430;48.818;9.244;2022-09-09T10:48:40;22.50;99.90
2447;DHT22;26430;48.818;9.244;2022-09-09T10:54:13;23.20;99.90
2447;DHT22;26430;48.818;9.244;2022-09-09T10:56:51;22.00;99.90
2447;DHT22;26430;48.818;9.244;2022-09-09T10:59:26;21.80;99.90
2447;DHT22;26430;48.818;9.244;2022-09-09T11:02:10;21.60;99.90
2447;DHT22;26430;48.818;9.244;2022-09-09T11:04:56;22.00;99.90
2447;DHT22;26430;48.818;9.244;2022-09-09T11:07:37;22.60;99.90
2447;DHT22;26430;48.818;9.244;2022-09-09T11:10:24;22.10;99.90
2447;DHT22;26430;48.818;9.244;2022-09-09T11:12:54;22.10;99.90
2447;DHT22;26430;48.818;9.244;2022-09-09T11:15:34;22.50;99.90
2447;DHT22;26430;48.818;9.244;2022-09-09T11:18:04;22.70;99.90
2447;DHT22;26430;48.818;9.244;2022-09-09T11:20:31;22.40;99.90
2447;DHT22;26430;48.818;9.244;2022-09-09T11:23:52;22.10;99.90
2447;DHT22;26430;48.818;9.244;2022-09-09T11:26:18;22.10;99.90
2447;DHT22;26430;48.818;9.244;2022-09-09T11:34:44;21.60;99.90
2447;DHT22;26430;48.818;9.244;2022-09-09T11:37:30;21.10;99.90
2447;DHT22;26430;48.818;9.244;2022-09-09T11:40:15;20.60;99.90
2447;DHT22;26430;48.818;9.244;2022-09-09T11:42:41;20.40;99.90
2447;DHT22;26430;48.818;9.244;2022-09-09T11:45:25;20.40;99.90
2447;DHT22;26430;48.818;9.244;2022-09-09T11:47:57;20.60;99.90
2447;DHT22;26430;48.818;9.244;2022-09-09T11:52:49;20.50;99.90
2447;DHT22;26430;48.818;9.244;2022-09-09T11:58:25;20.00;99.90
2447;DHT22;26430;48.818;9.244;2022-09-09T12:00:51;19.80;99.90
2447;DHT22;26430;48.818;9.244;2022-09-09T12:06:18;20.20;99.90
2447;DHT22;26430;48.818;9.244;2022-09-09T12:08:50;20.20;99.90
2447;DHT22;26430;48.818;9.244;2022-09-09T12:11:28;20.20;99.90
2447;DHT22;26430;48.818;9.244;2022-09-09T12:13:57;19.70;99.90
2447;DHT22;26430;48.818;9.244;2022-09-09T12:16:34;20.30;99.90
2447;DHT22;26430;48.818;9.244;2022-09-09T12:19:15;20.30;99.90
2447;DHT22;26430;48.818;9.244;2022-09-09T12:24:55;20.40;99.90
2447;DHT22;26430;48.818;9.244;2022-09-09T12:27:28;20.60;99.90
2447;DHT22;26430;48.818;9.244;2022-09-09T12:30:11;20.80;99.90
2447;DHT22;26430;48.818;9.244;2022-09-09T12:32:38;20.90;99.90
2447;DHT22;26430;48.818;9.244;2022-09-09T12:35:26;21.00;99.90
2447;DHT22;26430;48.818;9.244;2022-09-09T12:37:56;21.10;99.90
2447;DHT22;26430;48.818;9.244;2022-09-09T12:40:31;21.50;99.90
2447;DHT22;26430;48.818;9.244;2022-09-09T12:43:19;21.80;99.90
2447;DHT22;26430;48.818;9.244;2022-09-09T12:45:46;21.50;99.90
2447;DHT22;26430;48.818;9.244;2022-09-09T12:48:17;21.20;99.90
2447;DHT22;26430;48.818;9.244;2022-09-09T12:50:49;21.20;99.90
2447;DHT22;26430;48.818;9.244;2022-09-09T12:53:35;21.20;99.90
2447;DHT22;26430;48.818;9.244;2022-09-09T12:56:05;21.10;99.90
2447;DHT22;26430;48.818;9.244;2022-09-09T12:58:33;21.10;99.90
2447;DHT22;26430;48.818;9.244;2022-09-09T13:01:02;21.40;99.90
2447;DHT22;26430;48.818;9.244;2022-09-09T13:03:33;21.40;99.90
2447;DHT22;26430;48.818;9.244;2022-09-09T13:06:11;21.70;99.90
2447;DHT22;26430;48.818;9.244;2022-09-09T13:08:37;22.10;99.90
2447;DHT22;26430;48.818;9.244;2022-09-09T13:11:07;21.70;99.90
2447;DHT22;26430;48.818;9.244;2022-09-09T13:13:41;21.90;99.90
2447;DHT22;26430;48.818;9.244;2022-09-09T13:16:25;22.20;99.90
2447;DHT22;26430;48.818;9.244;2022-09-09T13:18:51;21.90;99.90
2447;DHT22;26430;48.818;9.244;2022-09-09T13:21:17;22.60;99.90
2447;DHT22;26430;48.818;9.244;2022-09-09T13:23:49;22.40;99.90
2447;DHT22;26430;48.818;9.244;2022-09-09T13:26:26;22.10;99.90
2447;DHT22;26430;48.818;9.244;2022-09-09T13:28:53;21.50;99.90
2447;DHT22;26430;48.818;9.244;2022-09-09T13:31:30;21.50;99.90
2447;DHT22;26430;48.818;9.244;2022-09-09T13:33:58;21.30;99.90
2447;DHT22;26430;48.818;9.244;2022-09-09T13:36:32;21.50;99.90
2447;DHT22;26430;48.818;9.244;2022-09-09T13:39:02;21.40;99.90
2447;DHT22;26430;48.818;9.244;2022-09-09T13:41:36;21.70;99.90
2447;DHT22;26430;48.818;9.244;2022-09-09T13:44:14;22.10;99.90
2447;DHT22;26430;48.818;9.244;2022-09-09T13:46:42;22.60;99.90
2447;DHT22;26430;48.818;9.244;2022-09-09T13:52:02;22.90;99.60
2447;DHT22;26430;48.818;9.244;2022-09-09T13:54:28;23.00;99.90
2447;DHT22;26430;48.818;9.244;2022-09-09T13:56:56;22.90;99.20
2447;DHT22;26430;48.818;9.244;2022-09-09T13:59:22;22.40;99.30
2447;DHT22;26430;48.818;9.244;2022-09-09T14:01:49;22.50;99.90
2447;DHT22;26430;48.818;9.244;2022-09-09T14:04:18;22.70;99.80
2447;DHT22;26430;48.818;9.244;2022-09-09T14:06:47;22.60;98.30
2447;DHT22;26430;48.818;9.244;2022-09-09T14:09:15;22.60;99.10
2447;DHT22;26430;48.818;9.244;2022-09-09T14:11:41;22.60;97.90
2447;DHT22;26430;48.818;9.244;2022-09-09T14:14:07;22.80;98.00
2447;DHT22;26430;48.818;9.244;2022-09-09T14:16:33;22.50;97.60
2447;DHT22;26430;48.818;9.244;2022-09-09T14:18:58;22.10;97.30
2447;DHT22;26430;48.818;9.244;2022-09-09T14:21:25;22.10;98.00
2447;DHT22;26430;48.818;9.244;2022-09-09T14:23:52;22.20;97.40
2447;DHT22;26430;48.818;9.244;2022-09-09T14:26:21;22.30;97.00
2447;DHT22;26430;48.818;9.244;2022-09-09T14:28:48;22.40;96.90
2447;DHT22;26430;48.818;9.244;2022-09-09T14:31:14;22.50;96.90
2447;DHT22;26430;48.818;9.244;2022-09-09T14:33:40;22.80;96.40
2447;DHT22;26430;48.818;9.244;2022-09-09T14:36:06;23.00;95.90
2447;DHT22;26430;48.818;9.244;2022-09-09T14:38:36;22.60;95.20
2447;DHT22;26430;48.818;9.244;2022-09-09T14:41:13;22.30;95.00
2447;DHT22;26430;48.818;9.244;2022-09-09T14:43:39;22.40;95.20
2447;DHT22;26430;48.818;9.244;2022-09-09T14:46:14;22.70;95.30
2447;DHT22;26430;48.818;9.244;2022-09-09T14:48:40;23.20;95.10
2447;DHT22;26430;48.818;9.244;2022-09-09T14:51:40;22.70;95.20
2447;DHT22;26430;48.818;9.244;2022-09-09T14:53:59;22.60;95.40
2447;DHT22;26430;48.818;9.244;2022-09-09T14:56:28;22.40;95.40
2447;DHT22;26430;48.818;9.244;2022-09-09T14:58:56;22.70;94.90
2447;DHT22;26430;48.818;9.244;2022-09-09T15:01:22;23.00;94.90
2447;DHT22;26430;48.818;9.244;2022-09-09T15:03:53;22.90;94.60
2447;DHT22;26430;48.818;9.244;2022-09-09T15:06:22;22.50;95.00
2447;DHT22;26430;48.818;9.244;2022-09-09T15:08:50;22.70;95.40
2447;DHT22;26430;48.818;9.244;2022-09-09T15:11:16;22.80;94.70
2447;DHT22;26430;48.818;9.244;2022-09-09T15:13:43;22.60;94.60
2447;DHT22;26430;48.818;9.244;2022-09-09T15:16:11;22.50;94.30
2447;DHT22;26430;48.818;9.244;2022-09-09T15:18:37;22.50;94.00
2447;DHT22;26430;48.818;9.244;2022-09-09T15:21:12;22.40;94.00
2447;DHT22;26430;48.818;9.244;2022-09-09T15:23:38;22.00;94.30
2447;DHT22;26430;48.818;9.244;2022-09-09T15:26:05;22.10;94.30
2447;DHT22;26430;48.818;9.244;2022-09-09T15:28:32;22.00;94.60
2447;DHT22;26430;48.818;9.244;2022-09-09T15:31:09;22.00;94.90
2447;DHT22;26430;48.818;9.244;2022-09-09T15:33:36;22.10;95.00
2447;DHT22;26430;48.818;9.244;2022-09-09T15:36:23;22.20;94.80
2447;DHT22;26430;48.818;9.244;2022-09-09T15:38:50;22.20;94.80
2447;DHT22;26430;48.818;9.244;2022-09-09T15:41:20;22.10;95.00
2447;DHT22;26430;48.818;9.244;2022-09-09T15:43:50;21.90;95.20
2447;DHT22;26430;48.818;9.244;2022-09-09T15:46:26;21.90;95.10
2447;DHT22;26430;48.818;9.244;2022-09-09T15:48:54;21.90;95.10
2447;DHT22;26430;48.818;9.244;2022-09-09T15:51:20;22.00;95.40
2447;DHT22;26430;48.818;9.244;2022-09-09T15:53:46;21.90;95.30
2447;DHT22;26430;48.818;9.244;2022-09-09T15:56:13;21.60;95.60
2447;DHT22;26430;48.818;9.244;2022-09-09T15:58:38;21.50;95.90
2447;DHT22;26430;48.818;9.244;2022-09-09T16:01:08;21.40;96.20
2447;DHT22;26430;48.818;9.244;2022-09-09T16:03:39;21.40;96.50
2447;DHT22;26430;48.818;9.244;2022-09-09T16:06:06;21.30;96.40
2447;DHT22;26430;48.818;9.244;2022-09-09T16:08:36;21.40;96.50
2447;DHT22;26430;48.818;9.244;2022-09-09T16:11:10;21.30;96.70
2447;DHT22;26430;48.818;9.244;2022-09-09T16:13:38;21.40;96.80
2447;DHT22;26430;48.818;9.244;2022-09-09T16:16:05;21.40;97.20
2447;DHT22;26430;48.818;9.244;2022-09-09T16:18:39;21.30;96.80
2447;DHT22;26430;48.818;9.244;2022-09-09T16:21:05;21.30;97.50
2447;DHT22;26430;48.818;9.244;2022-09-09T16:23:34;21.30;98.30
2447;DHT22;26430;48.818;9.244;2022-09-09T16:25:59;21.30;98.70
2447;DHT22;26430;48.818;9.244;2022-09-09T16:28:25;21.20;98.50
2447;DHT22;26430;48.818;9.244;2022-09-09T16:30:51;21.10;98.00
2447;DHT22;26430;48.818;9.244;2022-09-09T16:33:17;21.20;97.90
2447;DHT22;26430;48.818;9.244;2022-09-09T16:35:43;21.10;98.20
2447;DHT22;26430;48.818;9.244;2022-09-09T16:38:08;21.10;97.70
2447;DHT22;26430;48.818;9.244;2022-09-09T16:40:34;20.80;97.90
2447;DHT22;26430;48.818;9.244;2022-09-09T16:43:01;20.70;98.00
2447;DHT22;26430;48.818;9.244;2022-09-09T16:45:27;20.60;98.20
2447;DHT22;26430;48.818;9.244;2022-09-09T16:47:53;20.30;98.50
2447;DHT22;26430;48.818;9.244;2022-09-09T16:50:18;20.20;99.10
2447;DHT22;26430;48.818;9.244;2022-09-09T16:52:44;20.10;99.50
2447;DHT22;26430;48.818;9.244;2022-09-09T16:55:10;20.00;99.70
2447;DHT22;26430;48.818;9.244;2022-09-09T16:57:35;19.80;99.90
2447;DHT22;26430;48.818;9.244;2022-09-09T17:00:03;19.70;99.90
2447;DHT22;26430;48.818;9.244;2022-09-09T17:02:30;19.70;99.90
2447;DHT22;26430;48.818;9.244;2022-09-09T17:04:55;19.80;99.90
2447;DHT22;26430;48.818;9.244;2022-09-09T17:07:21;19.30;99.90
2447;DHT22;26430;48.818;9.244;2022-09-09T17:09:48;19.20;99.90
2447;DHT22;26430;48.818;9.244;2022-09-09T17:12:14;19.10;99.90
2447;DHT22;26430;48.818;9.244;2022-09-09T17:14:39;19.00;99.90
2447;DHT22;26430;48.818;9.244;2022-09-09T17:17:05;19.00;99.90
2447;DHT22;26430;48.818;9.244;2022-09-09T17:19:31;19.10;99.90
2447;DHT22;26430;48.818;9.244;2022-09-09T17:21:56;19.10;99.90
2447;DHT22;26430;48.818;9.244;2022-09-09T17:24:24;19.10;99.90
2447;DHT22;26430;48.818;9.244;2022-09-09T17:26:51;19.00;99.90
2447;DHT22;26430;48.818;9.244;2022-09-09T17:29:17;19.00;99.90
2447;DHT22;26430;48.818;9.244;2022-09-09T17:31:43;18.90;99.90
2447;DHT22;26430;48.818;9.244;2022-09-09T17:34:09;18.80;99.90
2447;DHT22;26430;48.818;9.244;2022-09-09T17:36:35;18.80;99.90
2447;DHT22;26430;48.818;9.244;2022-09-09T17:39:03;18.80;99.90
2447;DHT22;26430;48.818;9.244;2022-09-09T17:41:32;18.90;99.90
2447;DHT22;26430;48.818;9.244;2022-09-09T17:43:58;18.90;99.90
2447;DHT22;26430;48.818;9.244;2022-09-09T17:46:29;18.80;99.90
2447;DHT22;26430;48.818;9.244;2022-09-09T17:48:58;18.80;99.90